Time;durP1;ratioP1;P1;durP2;ratioP2;P2;SDS_P1;SDS_P2;PMS_P1;PMS_P2;Temp;Humidity;BMP_temperature;BMP_pressure;BME280_temperature;BME280_humidity;BME280_pressure;Samples;Min_cycle;Max_cycle;Signal;HPM_P1;HPM_P2
2022/10/26 00:01:58;;;;;;;7.05;2.50;;;10.90;99.90;;;;;;5057338;28;20063;-85
2022/10/26 00:04:23;;;;;;;6.45;2.70;;;10.90;99.90;;;;;;5080765;28;20032;-86
2022/10/26 00:06:49;;;;;;;7.00;2.50;;;10.90;99.90;;;;;;5067213;28;20078;-85
2022/10/26 00:09:15;;;;;;;11.40;2.97;;;10.90;99.90;;;;;;5064996;28;20031;-86
2022/10/26 00:11:40;;;;;;;8.02;2.95;;;10.90;99.90;;;;;;5060298;28;20081;-85
2022/10/26 00:14:06;;;;;;;8.15;2.72;;;10.90;99.90;;;;;;5074853;28;20066;-85
2022/10/26 00:16:32;;;;;;;7.30;3.33;;;10.90;99.90;;;;;;5063689;28;20114;-85
2022/10/26 00:19:06;;;;;;;8.15;3.67;;;10.90;99.90;;;;;;5065419;28;20411;-85
2022/10/26 00:21:32;;;;;;;10.98;4.40;;;10.90;99.90;;;;;;5080553;28;20024;-85
2022/10/26 00:23:58;;;;;;;7.45;3.15;;;10.90;99.90;;;;;;5085985;28;20438;-85
2022/10/26 00:26:24;;;;;;;5.53;2.63;;;10.90;99.90;;;;;;5065802;28;20020;-85
2022/10/26 00:28:53;;;;;;;6.65;3.20;;;10.90;99.90;;;;;;5058501;28;20394;-86
2022/10/26 00:31:19;;;;;;;10.15;3.63;;;10.90;99.90;;;;;;5079241;28;20386;-85
2022/10/26 00:33:45;;;;;;;6.05;3.10;;;10.90;99.90;;;;;;5061251;28;20028;-85
2022/10/26 00:36:13;;;;;;;8.32;2.88;;;10.90;99.90;;;;;;5078404;28;20020;-86
2022/10/26 00:38:44;;;;;;;7.43;3.40;;;10.90;99.90;;;;;;5080246;28;20028;-86
2022/10/26 00:41:15;;;;;;;8.40;2.83;;;10.90;99.90;;;;;;5080100;28;20020;-85
2022/10/26 00:43:40;;;;;;;12.10;3.33;;;11.00;99.90;;;;;;5069448;28;20059;-85
2022/10/26 00:46:11;;;;;;;7.40;3.10;;;11.00;99.90;;;;;;5061180;28;20493;-85
2022/10/26 00:48:41;;;;;;;11.77;3.67;;;11.00;99.90;;;;;;5083344;28;20032;-85
2022/10/26 00:51:13;;;;;;;12.45;3.15;;;11.10;99.90;;;;;;5056615;28;20033;-85
2022/10/26 00:53:39;;;;;;;8.60;3.85;;;11.10;99.90;;;;;;5084428;28;20032;-85
2022/10/26 00:56:05;;;;;;;8.93;3.65;;;11.10;99.90;;;;;;5076052;28;20024;-85
2022/10/26 00:58:31;;;;;;;13.93;3.65;;;11.10;99.90;;;;;;5073387;28;20025;-85
2022/10/26 01:00:57;;;;;;;7.45;3.55;;;11.10;99.90;;;;;;5072224;28;20078;-86
2022/10/26 01:03:26;;;;;;;14.52;3.85;;;11.00;99.90;;;;;;5054442;28;20057;-85
2022/10/26 01:05:55;;;;;;;3.72;3.00;;;11.10;99.90;;;;;;5086653;28;20103;-85
2022/10/26 01:08:22;;;;;;;5.75;3.40;;;11.10;99.90;;;;;;5056418;28;20033;-85
2022/10/26 01:10:48;;;;;;;7.32;2.90;;;11.20;99.90;;;;;;5073218;28;20025;-86
2022/10/26 01:13:16;;;;;;;13.13;2.95;;;11.20;99.90;;;;;;5061956;28;20056;-85
2022/10/26 01:16:20;;;;;;;11.80;4.38;;;11.20;99.90;;;;;;5072808;28;20025;-86
2022/10/26 01:19:02;;;;;;;19.90;4.22;;;11.20;99.90;;;;;;5064309;28;20067;-86
2022/10/26 01:21:59;;;;;;;7.35;4.97;;;11.20;99.90;;;;;;5076696;28;20040;-85
2022/10/26 01:25:00;;;;;;;8.00;3.15;;;11.20;99.90;;;;;;5050611;28;20078;-86
2022/10/26 01:27:37;;;;;;;8.02;3.92;;;11.20;99.90;;;;;;5068540;28;20150;-85
2022/10/26 01:30:15;;;;;;;12.80;3.28;;;11.30;99.90;;;;;;5057355;28;20064;-86
2022/10/26 01:33:04;;;;;;;8.60;3.20;;;11.30;99.90;;;;;;5072334;28;20373;-86
2022/10/26 01:35:51;;;;;;;10.02;2.80;;;11.30;99.90;;;;;;5060152;28;20091;-85
2022/10/26 01:38:46;;;;;;;7.07;2.47;;;11.30;99.90;;;;;;5074443;28;20028;-85
2022/10/26 01:41:26;;;;;;;5.90;2.53;;;11.30;99.90;;;;;;5056139;28;20166;-86
2022/10/26 01:44:12;;;;;;;5.28;2.55;;;11.30;99.90;;;;;;5055081;28;20063;-85
2022/10/26 01:46:42;;;;;;;9.30;2.65;;;11.40;99.90;;;;;;5080987;28;20480;-86
2022/10/26 01:49:11;;;;;;;3.88;2.20;;;11.40;99.90;;;;;;5059499;28;20477;-86
2022/10/26 01:51:40;;;;;;;4.35;2.33;;;11.40;99.90;;;;;;5101960;28;20032;-86
2022/10/26 01:54:06;;;;;;;8.05;2.67;;;11.40;99.90;;;;;;5055727;28;20063;-85
2022/10/26 01:56:37;;;;;;;10.10;2.53;;;11.40;99.90;;;;;;5077914;28;20055;-85
2022/10/26 01:59:12;;;;;;;6.15;2.40;;;11.50;99.90;;;;;;5075567;28;20031;-85
2022/10/26 02:01:53;;;;;;;7.25;2.47;;;11.40;99.90;;;;;;5075460;28;20036;-85
2022/10/26 02:04:54;;;;;;;7.43;2.67;;;11.40;99.90;;;;;;5059276;28;20035;-85
2022/10/26 02:07:41;;;;;;;8.65;2.42;;;11.40;99.90;;;;;;5037861;28;20037;-85
2022/10/26 02:10:16;;;;;;;5.18;2.28;;;11.40;99.90;;;;;;5050612;28;20060;-85
2022/10/26 02:12:57;;;;;;;4.05;2.33;;;11.40;99.90;;;;;;5080448;28;20082;-85
2022/10/26 02:15:54;;;;;;;7.63;2.53;;;11.30;99.90;;;;;;5057467;28;20025;-85
2022/10/26 02:18:38;;;;;;;5.68;2.30;;;11.30;99.90;;;;;;5035010;28;20533;-85
2022/10/26 02:21:12;;;;;;;4.60;2.65;;;11.20;99.90;;;;;;5069639;28;20024;-85
2022/10/26 02:23:40;;;;;;;7.93;2.40;;;11.20;99.90;;;;;;5078006;28;20384;-85
2022/10/26 02:26:09;;;;;;;6.10;2.13;;;11.10;99.90;;;;;;5077078;28;20172;-85
2022/10/26 02:28:43;;;;;;;4.65;2.05;;;11.20;99.90;;;;;;5069728;28;20036;-84
2022/10/26 02:31:10;;;;;;;;;;;11.20;99.90;;;;;;5061372;28;20056;-86
2022/10/26 02:33:40;;;;;;;8.63;2.33;;;11.20;99.90;;;;;;5055382;28;19987;-85
2022/10/26 02:36:10;;;;;;;5.25;2.53;;;11.20;99.90;;;;;;5078984;28;20020;-85
2022/10/26 02:38:38;;;;;;;8.82;2.03;;;11.30;99.90;;;;;;5074703;28;20078;-86
2022/10/26 02:41:07;;;;;;;9.68;2.45;;;11.20;99.90;;;;;;5079416;28;20671;-85
2022/10/26 02:43:37;;;;;;;3.72;2.20;;;11.20;99.90;;;;;;5063495;28;20016;-85
2022/10/26 02:46:10;;;;;;;7.07;2.42;;;11.30;99.90;;;;;;5075522;28;20570;-85
2022/10/26 02:48:36;;;;;;;7.57;2.35;;;11.30;99.90;;;;;;5069354;28;20036;-85
2022/10/26 02:51:14;;;;;;;4.10;1.95;;;11.30;99.90;;;;;;5059654;28;20028;-86
2022/10/26 02:53:57;;;;;;;5.63;2.22;;;11.30;99.90;;;;;;5081471;28;20092;-85
2022/10/26 02:56:52;;;;;;;5.45;2.03;;;11.30;99.90;;;;;;5081844;28;20433;-85
2022/10/26 02:59:20;;;;;;;6.20;2.30;;;11.30;99.90;;;;;;5052300;28;20535;-85
2022/10/26 03:01:50;;;;;;;5.38;1.95;;;11.40;99.90;;;;;;5079060;28;20072;-85
2022/10/26 03:04:16;;;;;;;5.43;2.10;;;11.30;99.90;;;;;;5062846;28;20042;-85
2022/10/26 03:06:50;;;;;;;5.20;2.60;;;11.40;99.90;;;;;;5064922;28;20427;-86
2022/10/26 03:09:15;;;;;;;8.82;2.67;;;11.40;99.90;;;;;;5063837;28;20028;-85
2022/10/26 03:11:41;;;;;;;5.78;3.17;;;11.50;99.90;;;;;;5073613;28;20017;-85
2022/10/26 03:14:07;;;;;;;5.95;2.97;;;11.50;99.90;;;;;;5064948;28;20073;-85
2022/10/26 03:16:32;;;;;;;7.47;3.05;;;11.60;99.90;;;;;;5059111;28;20426;-85
2022/10/26 03:18:58;;;;;;;8.52;3.33;;;11.60;99.90;;;;;;5065484;28;20513;-85
2022/10/26 03:21:23;;;;;;;6.65;2.70;;;11.60;99.90;;;;;;5080068;28;20608;-85
2022/10/26 03:23:50;;;;;;;7.57;2.40;;;11.60;99.90;;;;;;5081556;28;20515;-85
2022/10/26 03:26:16;;;;;;;5.18;2.72;;;11.60;99.90;;;;;;5080450;28;20023;-85
2022/10/26 03:28:42;;;;;;;5.07;2.60;;;11.60;99.90;;;;;;5056408;28;20383;-85
2022/10/26 03:31:07;;;;;;;8.27;2.53;;;11.70;99.90;;;;;;5073900;28;20032;-84
2022/10/26 03:33:33;;;;;;;9.70;3.20;;;11.70;99.90;;;;;;5075003;28;20032;-85
2022/10/26 03:35:59;;;;;;;11.40;2.85;;;11.60;99.90;;;;;;5065133;28;20126;-84
2022/10/26 03:38:24;;;;;;;4.95;2.42;;;11.60;99.90;;;;;;5078992;28;20061;-85
2022/10/26 03:40:50;;;;;;;7.72;2.60;;;11.50;99.90;;;;;;5080731;28;20040;-85
2022/10/26 03:43:50;;;;;;;9.00;3.33;;;11.50;99.90;;;;;;5080127;28;20020;-84
2022/10/26 03:46:16;;;;;;;8.32;2.80;;;11.50;99.90;;;;;;5065929;28;20377;-85
2022/10/26 03:48:41;;;;;;;5.53;3.05;;;11.40;99.90;;;;;;5070126;28;20020;-85
2022/10/26 03:51:07;;;;;;;7.47;2.65;;;11.40;99.90;;;;;;5062063;28;20035;-85
2022/10/26 03:53:33;;;;;;;10.77;4.45;;;11.40;99.90;;;;;;5068422;28;20036;-85
2022/10/26 03:55:58;;;;;;;11.02;3.03;;;11.40;99.90;;;;;;5060578;28;20103;-85
2022/10/26 03:58:24;;;;;;;8.60;2.90;;;11.50;99.90;;;;;;5058540;28;20028;-85
2022/10/26 04:00:50;;;;;;;7.35;2.45;;;11.50;99.90;;;;;;5086068;28;20032;-85
2022/10/26 04:03:16;;;;;;;5.20;2.92;;;11.50;99.90;;;;;;5056154;28;20082;-85
2022/10/26 04:05:41;;;;;;;9.55;2.90;;;11.60;99.90;;;;;;5086632;28;20596;-85
2022/10/26 04:08:08;;;;;;;4.72;2.58;;;11.50;99.90;;;;;;5077521;28;20027;-85
2022/10/26 04:10:33;;;;;;;7.40;2.58;;;11.60;99.90;;;;;;5070689;28;20032;-85
2022/10/26 04:13:00;;;;;;;7.00;2.92;;;11.60;99.90;;;;;;5084599;28;20108;-85
2022/10/26 04:15:26;;;;;;;5.65;2.58;;;11.70;99.90;;;;;;5070846;28;20017;-85
2022/10/26 04:17:59;;;;;;;4.93;2.50;;;11.60;99.90;;;;;;5086396;28;20040;-85
2022/10/26 04:20:27;;;;;;;7.05;4.70;;;11.60;99.90;;;;;;5055000;28;20056;-85
2022/10/26 04:23:01;;;;;;;22.92;10.98;;;11.70;99.90;;;;;;5088340;28;20103;-85
2022/10/26 04:25:27;;;;;;;32.80;14.68;;;11.70;99.90;;;;;;5073536;28;20021;-85
2022/10/26 04:27:52;;;;;;;15.40;7.57;;;11.70;99.90;;;;;;5092651;28;20016;-85
2022/10/26 04:30:18;;;;;;;7.35;3.70;;;11.70;99.90;;;;;;5061892;28;20844;-85
2022/10/26 04:32:44;;;;;;;9.48;4.40;;;11.70;99.90;;;;;;5074369;28;20638;-85
2022/10/26 04:35:10;;;;;;;13.48;4.60;;;11.70;99.90;;;;;;5083521;28;20027;-85
2022/10/26 04:37:35;;;;;;;8.48;4.57;;;11.80;99.90;;;;;;5071861;28;20025;-85
2022/10/26 04:40:01;;;;;;;12.45;5.43;;;11.80;99.90;;;;;;5070407;28;20059;-84
2022/10/26 04:42:27;;;;;;;8.02;3.13;;;11.80;99.90;;;;;;5056111;28;20087;-84
2022/10/26 04:44:53;;;;;;;10.18;3.70;;;11.70;99.90;;;;;;5075817;28;20356;-85
2022/10/26 04:47:18;;;;;;;6.40;3.00;;;11.50;99.90;;;;;;5078542;28;20033;-84
2022/10/26 04:49:44;;;;;;;8.38;2.95;;;11.50;99.90;;;;;;5074493;28;20052;-85
2022/10/26 04:52:10;;;;;;;7.63;3.58;;;11.40;99.90;;;;;;5083993;28;20032;-87
2022/10/26 04:54:35;;;;;;;6.40;3.28;;;11.30;99.90;;;;;;5072844;28;20025;-86
2022/10/26 04:57:01;;;;;;;17.25;3.63;;;11.30;99.90;;;;;;5087103;28;20099;-86
2022/10/26 04:59:27;;;;;;;6.50;3.60;;;11.30;99.90;;;;;;5075812;28;20111;-86
2022/10/26 05:01:52;;;;;;;8.50;3.42;;;11.30;99.90;;;;;;5079840;28;20024;-86
2022/10/26 05:04:18;;;;;;;12.73;3.42;;;11.30;99.90;;;;;;5061010;28;20097;-87
2022/10/26 05:06:44;;;;;;;9.75;3.95;;;11.30;99.90;;;;;;5080016;28;20422;-86
2022/10/26 05:09:10;;;;;;;8.32;3.83;;;11.20;99.90;;;;;;5079150;28;20119;-86
2022/10/26 05:11:35;;;;;;;7.13;3.50;;;11.20;99.90;;;;;;5070834;28;20037;-85
2022/10/26 05:14:01;;;;;;;9.38;3.85;;;11.20;99.90;;;;;;5062707;28;20024;-86
2022/10/26 05:16:26;;;;;;;6.28;3.75;;;11.10;99.90;;;;;;5058420;28;20028;-87
2022/10/26 05:18:52;;;;;;;9.07;4.03;;;11.10;99.90;;;;;;5079297;28;20364;-86
2022/10/26 05:21:18;;;;;;;11.18;4.32;;;11.10;99.90;;;;;;5061235;28;20024;-86
2022/10/26 05:23:54;;;;;;;12.32;3.85;;;11.20;99.90;;;;;;5062660;28;20065;-86
2022/10/26 05:30:33;;;;;;;8.07;3.83;;;11.30;99.90;;;;;;5073676;28;20091;-85
2022/10/26 05:33:02;;;;;;;13.10;3.85;;;11.30;99.90;;;;;;5061262;28;20035;-86
2022/10/26 05:35:28;;;;;;;9.93;4.03;;;11.30;99.90;;;;;;5057796;28;20025;-86
2022/10/26 05:37:54;;;;;;;16.45;4.13;;;11.30;99.90;;;;;;5055710;28;20511;-86
2022/10/26 05:40:20;;;;;;;6.25;3.25;;;11.40;99.90;;;;;;5067915;28;20104;-86
2022/10/26 05:42:45;;;;;;;11.07;3.20;;;11.30;99.90;;;;;;5076627;28;20472;-84
2022/10/26 05:45:12;;;;;;;13.73;3.88;;;11.20;99.90;;;;;;5058231;28;20077;-85
2022/10/26 05:47:41;;;;;;;10.10;4.55;;;11.20;99.90;;;;;;5078026;28;20060;-85
2022/10/26 05:50:09;;;;;;;11.45;3.90;;;11.10;99.90;;;;;;5059643;28;20039;-84
2022/10/26 05:52:43;;;;;;;12.32;3.97;;;11.20;99.90;;;;;;5065692;28;20097;-84
2022/10/26 05:55:10;;;;;;;11.20;4.35;;;11.10;99.90;;;;;;5057378;28;20041;-85
2022/10/26 05:57:37;;;;;;;9.25;4.70;;;11.10;99.90;;;;;;5081667;28;20027;-85
2022/10/26 06:00:07;;;;;;;9.63;3.97;;;11.10;99.90;;;;;;5052941;28;20024;-85
2022/10/26 06:02:46;;;;;;;11.25;3.38;;;11.10;99.90;;;;;;5080695;28;20035;-85
2022/10/26 06:05:19;;;;;;;9.30;3.03;;;11.10;99.90;;;;;;5069737;28;20735;-87
2022/10/26 06:07:45;;;;;;;5.43;3.35;;;11.20;99.90;;;;;;5077113;28;20055;-88
2022/10/26 06:10:11;;;;;;;9.18;3.78;;;11.30;99.90;;;;;;5067972;28;20555;-87
2022/10/26 06:12:37;;;;;;;5.82;2.80;;;11.30;99.90;;;;;;5057261;28;20077;-88
2022/10/26 06:15:04;;;;;;;10.00;3.10;;;11.30;99.90;;;;;;5058730;28;20445;-86
2022/10/26 06:17:56;;;;;;;12.73;2.88;;;11.40;99.90;;;;;;5054320;28;20025;-88
2022/10/26 06:20:42;;;;;;;10.00;3.30;;;11.50;99.90;;;;;;5060101;28;20127;-88
2022/10/26 06:23:23;;;;;;;11.88;3.63;;;11.50;99.90;;;;;;5061471;28;20040;-88
2022/10/26 06:26:06;;;;;;;15.50;3.85;;;11.50;99.90;;;;;;5072915;28;20083;-87
2022/10/26 06:28:47;;;;;;;10.77;3.35;;;11.50;99.90;;;;;;5054567;28;20025;-88
2022/10/26 06:31:13;;;;;;;10.93;3.53;;;11.60;99.90;;;;;;5051828;28;20111;-87
2022/10/26 06:33:40;;;;;;;7.15;3.42;;;11.60;99.90;;;;;;5068913;28;20295;-88
2022/10/26 06:36:06;;;;;;;4.38;3.35;;;11.60;99.90;;;;;;5052894;28;20045;-87
2022/10/26 06:38:34;;;;;;;10.35;3.72;;;11.60;99.90;;;;;;5052397;28;20059;-87
2022/10/26 06:41:00;;;;;;;21.52;5.72;;;11.70;99.90;;;;;;5069899;28;20037;-88
2022/10/26 06:43:31;;;;;;;7.55;3.47;;;11.70;99.90;;;;;;5052556;28;20029;-87
2022/10/26 06:46:15;;;;;;;8.68;3.42;;;11.70;99.90;;;;;;5051604;28;20025;-87
2022/10/26 06:49:02;;;;;;;10.57;3.17;;;11.80;99.90;;;;;;5071052;28;20074;-88
2022/10/26 06:51:30;;;;;;;7.82;3.13;;;11.80;99.90;;;;;;5055891;28;20035;-87
2022/10/26 06:54:37;;;;;;;6.72;3.67;;;11.80;99.90;;;;;;5075771;28;20024;-87
2022/10/26 06:57:03;;;;;;;6.55;3.58;;;11.80;99.90;;;;;;5070463;28;20052;-87
2022/10/26 06:59:44;;;;;;;7.07;3.40;;;11.80;99.90;;;;;;5058597;28;20052;-87
2022/10/26 07:02:13;;;;;;;9.95;4.00;;;11.90;99.90;;;;;;5056478;28;21089;-87
2022/10/26 07:04:41;;;;;;;9.10;3.40;;;11.80;99.90;;;;;;5054633;28;20048;-87
2022/10/26 07:07:12;;;;;;;12.27;3.53;;;11.80;99.90;;;;;;5070224;28;20032;-87
2022/10/26 07:09:38;;;;;;;;;;;11.80;99.90;;;;;;5057311;28;20044;-87
2022/10/26 07:12:04;;;;;;;6.55;3.72;;;11.80;99.90;;;;;;5064435;28;20520;-87
2022/10/26 07:14:29;;;;;;;10.32;4.53;;;11.80;99.90;;;;;;5066770;28;20036;-88
2022/10/26 07:16:55;;;;;;;11.30;4.40;;;11.80;99.90;;;;;;5054500;28;20499;-87
2022/10/26 07:19:22;;;;;;;14.38;4.72;;;11.90;99.90;;;;;;5065421;28;20021;-87
2022/10/26 07:21:48;;;;;;;8.73;4.90;;;12.00;99.90;;;;;;5052705;28;20379;-88
2022/10/26 07:24:13;;;;;;;13.60;4.53;;;12.10;99.90;;;;;;5065546;28;20116;-87
2022/10/26 07:26:39;;;;;;;11.52;4.53;;;12.10;99.90;;;;;;5055382;28;20064;-88
2022/10/26 07:29:05;;;;;;;9.63;4.78;;;12.10;99.90;;;;;;5056788;28;20028;-86
2022/10/26 07:31:31;;;;;;;10.13;3.88;;;12.10;99.90;;;;;;5072901;28;20032;-88
2022/10/26 07:33:56;;;;;;;23.30;8.35;;;12.10;99.90;;;;;;5109858;27;20071;-87
2022/10/26 07:36:22;;;;;;;9.82;5.65;;;12.10;99.90;;;;;;5057589;28;20025;-87
2022/10/26 07:38:51;;;;;;;10.70;4.43;;;12.20;99.90;;;;;;5089257;28;20020;-87
2022/10/26 07:41:17;;;;;;;12.52;4.70;;;12.30;99.90;;;;;;5059275;28;20380;-88
2022/10/26 07:43:44;;;;;;;15.45;4.90;;;12.40;99.90;;;;;;5089510;28;20028;-88
2022/10/26 07:46:11;;;;;;;12.07;4.72;;;12.50;99.90;;;;;;5051921;28;20554;-88
2022/10/26 07:48:37;;;;;;;12.05;4.70;;;12.50;99.90;;;;;;5074729;28;20033;-88
2022/10/26 07:51:06;;;;;;;11.00;4.25;;;12.50;99.90;;;;;;5071483;28;20029;-88
2022/10/26 07:53:31;;;;;;;9.93;4.15;;;12.50;99.90;;;;;;5063040;28;20127;-87
2022/10/26 07:55:57;;;;;;;11.68;5.00;;;12.50;99.90;;;;;;5079103;28;20051;-87
2022/10/26 07:58:41;;;;;;;7.53;4.75;;;12.50;99.90;;;;;;5076929;28;20476;-87
2022/10/26 08:01:13;;;;;;;9.63;4.93;;;12.50;99.90;;;;;;5060111;28;20032;-88
2022/10/26 08:07:28;;;;;;;10.50;4.32;;;12.50;99.90;;;;;;5084952;28;20477;-87
2022/10/26 08:09:54;;;;;;;12.85;3.85;;;12.60;99.90;;;;;;5068856;28;20029;-87
2022/10/26 08:12:21;;;;;;;8.20;3.80;;;12.70;99.90;;;;;;5096098;28;20036;-89
2022/10/26 08:14:47;;;;;;;6.80;3.95;;;12.80;99.90;;;;;;5077463;28;20031;-88
2022/10/26 08:17:12;;;;;;;8.35;4.57;;;13.00;99.90;;;;;;5063744;28;20412;-87
2022/10/26 08:19:38;;;;;;;8.75;3.63;;;13.30;99.90;;;;;;5072498;28;20020;-88
2022/10/26 08:22:05;;;;;;;6.25;3.53;;;13.40;99.90;;;;;;5079578;28;20069;-88
2022/10/26 08:25:14;;;;;;;6.72;3.30;;;13.60;99.90;;;;;;5083362;28;20032;-87
2022/10/26 08:27:40;;;;;;;9.45;3.90;;;13.90;99.90;;;;;;5056701;28;20064;-88
2022/10/26 08:30:06;;;;;;;9.35;3.13;;;14.10;99.90;;;;;;5066523;28;20047;-87
2022/10/26 08:32:32;;;;;;;14.88;4.47;;;14.20;99.90;;;;;;5071648;28;20021;-87
2022/10/26 08:34:58;;;;;;;9.98;4.90;;;14.20;99.90;;;;;;5087471;28;20063;-88
2022/10/26 08:37:23;;;;;;;16.25;5.05;;;14.30;99.90;;;;;;5073099;28;20116;-88
2022/10/26 08:39:49;;;;;;;14.05;5.90;;;14.30;99.90;;;;;;5087184;28;20032;-88
2022/10/26 08:42:43;;;;;;;9.68;3.55;;;14.40;99.90;;;;;;5062204;28;20021;-87
2022/10/26 08:45:25;;;;;;;11.88;2.85;;;14.60;99.90;;;;;;5064358;28;20043;-88
2022/10/26 08:47:54;;;;;;;;;;;14.60;99.90;;;;;;5080095;28;20083;-89
2022/10/26 08:50:38;;;;;;;10.27;4.80;;;14.60;99.90;;;;;;5061919;28;20007;-87
2022/10/26 08:53:12;;;;;;;17.05;3.35;;;14.60;99.90;;;;;;5064699;28;20430;-88
2022/10/26 08:55:46;;;;;;;9.18;2.47;;;14.50;99.90;;;;;;5061270;28;20035;-88
2022/10/26 08:58:17;;;;;;;8.75;2.58;;;14.40;99.90;;;;;;5078876;28;20486;-89
2022/10/26 09:00:46;;;;;;;9.65;2.80;;;14.20;99.90;;;;;;5085368;28;20027;-87
2022/10/26 09:03:16;;;;;;;13.52;2.78;;;14.20;99.90;;;;;;5057580;28;20032;-88
2022/10/26 09:05:57;;;;;;;6.47;2.40;;;14.20;99.90;;;;;;5086814;28;20024;-88
2022/10/26 09:08:54;;;;;;;12.43;2.60;;;14.40;99.90;;;;;;5059589;28;20096;-88
2022/10/26 09:11:35;;;;;;;5.18;2.10;;;14.60;99.90;;;;;;5076743;28;20047;-88
2022/10/26 09:14:18;;;;;;;8.82;2.90;;;14.90;99.90;;;;;;5041118;28;20471;-88
2022/10/26 09:17:07;;;;;;;7.78;2.30;;;15.20;99.90;;;;;;5069740;28;20028;-87
2022/10/26 09:19:52;;;;;;;15.77;2.97;;;15.50;99.90;;;;;;5042726;28;20111;-88
2022/10/26 09:22:54;;;;;;;7.93;2.92;;;15.50;99.90;;;;;;5069798;28;20035;-87
2022/10/26 09:25:22;;;;;;;10.43;3.13;;;15.70;99.90;;;;;;5061111;28;20029;-89
2022/10/26 09:27:55;;;;;;;14.02;2.90;;;15.70;99.90;;;;;;5068985;28;20087;-88
2022/10/26 09:30:22;;;;;;;12.27;3.05;;;15.70;99.90;;;;;;5060883;28;20032;-88
2022/10/26 09:33:01;;;;;;;9.77;2.38;;;15.80;99.90;;;;;;5055515;28;20029;-88
2022/10/26 09:35:41;;;;;;;13.65;2.80;;;15.60;99.90;;;;;;5060663;28;20032;-88
2022/10/26 09:38:44;;;;;;;14.10;2.92;;;15.40;99.90;;;;;;5088354;28;20028;-88
2022/10/26 09:41:28;;;;;;;13.20;3.22;;;15.30;99.90;;;;;;5075261;28;20074;-89
2022/10/26 09:43:56;;;;;;;8.10;2.90;;;15.70;99.90;;;;;;5072412;28;20408;-88
2022/10/26 09:46:32;;;;;;;11.07;3.65;;;16.20;99.90;;;;;;5054080;28;20399;-89
2022/10/26 09:49:06;;;;;;;13.05;3.30;;;16.80;99.90;;;;;;5065620;28;20040;-88
2022/10/26 09:51:35;;;;;;;12.32;3.40;;;17.10;99.90;;;;;;5054656;28;20036;-88
2022/10/26 09:54:04;;;;;;;9.70;2.90;;;17.50;99.90;;;;;;5066139;28;20031;-88
2022/10/26 09:56:30;;;;;;;6.80;3.10;;;17.90;99.90;;;;;;5066840;28;20029;-88
2022/10/26 09:59:03;;;;;;;13.70;3.42;;;18.20;99.90;;;;;;5067467;28;20024;-88
2022/10/26 10:01:50;;;;;;;10.50;4.20;;;18.20;99.90;;;;;;5040587;28;20456;-88
2022/10/26 10:04:21;;;;;;;8.60;3.17;;;18.20;99.90;;;;;;5042251;28;20119;-89
2022/10/26 10:07:02;;;;;;;12.52;3.30;;;18.30;99.90;;;;;;5045959;28;20071;-88
2022/10/26 10:09:27;;;;;;;12.23;3.72;;;18.20;99.90;;;;;;5051882;28;20032;-88
2022/10/26 10:11:59;;;;;;;10.13;3.10;;;18.20;99.90;;;;;;5049132;28;20090;-88
2022/10/26 10:14:31;;;;;;;13.75;3.63;;;18.20;99.90;;;;;;5049777;28;20115;-88
2022/10/26 10:17:07;;;;;;;9.93;3.58;;;18.10;99.90;;;;;;5048946;28;20052;-88
2022/10/26 10:19:35;;;;;;;13.90;3.53;;;18.40;99.90;;;;;;5061527;28;20111;-88
2022/10/26 10:22:10;;;;;;;4.70;2.67;;;18.20;99.90;;;;;;5080497;28;20455;-88
2022/10/26 10:24:39;;;;;;;12.38;3.80;;;18.00;99.90;;;;;;5075587;28;20105;-87
2022/10/26 10:27:16;;;;;;;26.77;4.43;;;17.80;99.90;;;;;;5064144;28;20058;-88
2022/10/26 10:29:55;;;;;;;16.55;6.45;;;17.90;99.90;;;;;;5060609;28;20028;-87
2022/10/26 10:32:26;;;;;;;10.73;4.20;;;17.90;99.90;;;;;;5064676;28;20375;-87
2022/10/26 10:34:56;;;;;;;;;;;17.60;99.90;;;;;;5073947;28;20043;-88
2022/10/26 10:37:38;;;;;;;9.35;3.75;;;17.30;99.90;;;;;;5079195;28;19915;-88
2022/10/26 10:40:08;;;;;;;9.40;4.75;;;17.10;99.90;;;;;;5052881;28;20368;-89
2022/10/26 10:42:39;;;;;;;12.10;6.88;;;17.10;99.90;;;;;;5083873;28;20078;-87
2022/10/26 10:45:16;;;;;;;8.52;3.92;;;17.20;99.90;;;;;;5074615;28;20055;-87
2022/10/26 10:47:58;;;;;;;10.57;3.75;;;17.20;99.90;;;;;;5086600;28;20830;-88
2022/10/26 10:50:24;;;;;;;15.82;4.20;;;17.20;99.90;;;;;;5073719;28;20388;-87
2022/10/26 10:52:51;;;;;;;16.00;3.83;;;17.30;99.90;;;;;;5074244;28;20033;-88
2022/10/26 10:55:20;;;;;;;13.05;3.50;;;17.40;99.90;;;;;;5066556;28;20032;-88
2022/10/26 10:58:14;;;;;;;14.07;4.10;;;17.30;99.90;;;;;;5081013;28;20029;-88
2022/10/26 11:00:43;;;;;;;9.82;4.82;;;17.10;99.90;;;;;;5083490;28;20032;-87
2022/10/26 11:03:51;;;;;;;9.50;3.42;;;16.70;99.90;;;;;;5057386;28;20051;-87
2022/10/26 11:06:21;;;;;;;11.02;4.32;;;16.60;99.90;;;;;;5060553;28;20034;-87
2022/10/26 11:09:04;;;;;;;12.90;4.30;;;16.60;99.90;;;;;;5079557;28;20041;-87
2022/10/26 11:11:35;;;;;;;10.48;4.07;;;16.50;99.90;;;;;;5075013;28;20039;-89
2022/10/26 11:14:23;;;;;;;8.93;3.88;;;16.40;99.90;;;;;;5076582;28;20421;-88
2022/10/26 11:17:14;;;;;;;17.38;3.95;;;16.20;99.90;;;;;;5060040;28;20025;-88
2022/10/26 11:20:02;;;;;;;13.35;3.92;;;16.20;99.90;;;;;;5073589;28;20040;-88
2022/10/26 11:22:41;;;;;;;14.98;3.85;;;16.50;99.90;;;;;;5086156;28;20081;-88
2022/10/26 11:25:17;;;;;;;9.75;3.55;;;17.10;99.90;;;;;;5059877;28;20021;-88
2022/10/26 11:27:46;;;;;;;12.35;4.05;;;17.70;99.90;;;;;;5081327;28;20041;-88
2022/10/26 11:30:19;;;;;;;7.60;3.45;;;18.40;99.90;;;;;;5070439;28;20016;-87
2022/10/26 11:33:23;;;;;;;15.45;6.75;;;18.80;99.90;;;;;;5080026;28;20068;-88
2022/10/26 11:35:59;;;;;;;14.40;5.30;;;19.10;99.90;;;;;;5037034;28;20049;-88
2022/10/26 11:38:43;;;;;;;22.38;6.50;;;19.50;99.90;;;;;;5063724;28;20029;-89
2022/10/26 11:42:04;;;;;;;16.02;6.15;;;19.50;99.90;;;;;;5059146;28;20031;-88
2022/10/26 11:44:30;;;;;;;;;;;19.50;99.90;;;;;;5063969;28;20044;-88
2022/10/26 11:47:02;;;;;;;10.27;3.58;;;19.20;99.90;;;;;;5072730;28;19909;-88
2022/10/26 11:49:34;;;;;;;19.52;3.90;;;18.70;99.90;;;;;;5055739;28;20025;-87
2022/10/26 11:52:05;;;;;;;;;;;18.20;99.90;;;;;;5060645;28;20534;-88
2022/10/26 11:55:12;;;;;;;11.60;4.28;;;17.90;99.90;;;;;;5056400;28;19919;-88
2022/10/26 11:57:39;;;;;;;41.55;16.92;;;17.50;99.90;;;;;;5068035;28;20383;-88
2022/10/26 12:00:19;;;;;;;26.98;10.00;;;17.40;99.90;;;;;;5060919;28;20024;-89
2022/10/26 12:02:56;;;;;;;26.67;11.00;;;17.40;99.90;;;;;;5063409;28;20039;-88
2022/10/26 12:05:23;;;;;;;16.13;6.82;;;17.60;99.90;;;;;;5100236;28;20402;-88
2022/10/26 12:07:59;;;;;;;34.78;13.30;;;17.70;99.90;;;;;;5080639;28;20040;-88
2022/10/26 12:10:29;;;;;;;25.88;15.18;;;17.50;99.90;;;;;;5058404;28;20032;-88
2022/10/26 12:13:11;;;;;;;24.48;11.25;;;17.30;99.90;;;;;;5086227;28;20032;-87
2022/10/26 12:15:45;;;;;;;31.90;14.60;;;17.40;99.90;;;;;;5061882;28;20029;-89
2022/10/26 12:18:16;;;;;;;24.23;13.32;;;17.50;99.90;;;;;;5068584;28;20036;-86
2022/10/26 12:20:53;;;;;;;11.38;5.28;;;17.40;99.90;;;;;;5110125;27;20048;-87
2022/10/26 12:23:20;;;;;;;13.20;3.92;;;17.40;99.90;;;;;;5068155;28;20021;-87
2022/10/26 12:25:46;;;;;;;7.57;3.00;;;17.50;99.90;;;;;;5078377;28;20036;-87
2022/10/26 12:28:44;;;;;;;10.98;3.28;;;17.60;99.90;;;;;;5077583;28;20747;-87
2022/10/26 12:31:31;;;;;;;11.18;3.00;;;17.70;99.90;;;;;;5031562;28;20036;-87
2022/10/26 12:33:58;;;;;;;11.35;3.38;;;18.00;99.90;;;;;;5057780;28;20034;-86
2022/10/26 12:36:55;;;;;;;13.77;3.33;;;18.30;99.90;;;;;;5065303;28;20020;-87
2022/10/26 12:39:37;;;;;;;10.80;3.47;;;18.10;99.90;;;;;;5083141;28;20383;-87
2022/10/26 12:45:31;;;;;;;10.10;4.50;;;18.40;99.90;;;;;;5074016;28;20028;-86
2022/10/26 12:48:03;;;;;;;14.70;3.05;;;18.50;99.90;;;;;;5068233;28;20173;-87
2022/10/26 12:50:29;;;;;;;11.90;3.80;;;18.60;99.90;;;;;;5076028;28;20117;-87
2022/10/26 12:53:03;;;;;;;11.85;2.92;;;18.60;99.90;;;;;;5081321;28;20058;-87
2022/10/26 12:55:35;;;;;;;8.98;2.92;;;18.50;99.90;;;;;;5078632;28;20028;-88
2022/10/26 12:58:19;;;;;;;14.27;3.70;;;18.40;99.90;;;;;;5058885;28;20067;-88
2022/10/26 13:01:09;;;;;;;13.65;3.42;;;18.50;99.90;;;;;;5086828;28;20468;-88
2022/10/26 13:03:51;;;;;;;15.13;4.13;;;18.60;99.90;;;;;;5073028;28;20032;-88
2022/10/26 13:06:17;;;;;;;11.48;4.18;;;18.70;99.90;;;;;;5084476;28;20039;-89
2022/10/26 13:08:49;;;;;;;10.73;3.50;;;18.80;99.90;;;;;;5075777;28;20388;-89
2022/10/26 13:11:17;;;;;;;11.70;3.90;;;18.90;99.90;;;;;;5059999;28;20020;-89
2022/10/26 13:13:43;;;;;;;11.93;3.33;;;18.80;99.90;;;;;;5076678;28;20033;-87
2022/10/26 13:16:11;;;;;;;15.90;3.25;;;18.70;99.90;;;;;;5078250;28;20191;-89
2022/10/26 13:18:42;;;;;;;10.45;3.20;;;18.70;99.90;;;;;;5061601;28;20033;-86
2022/10/26 13:21:14;;;;;;;11.23;3.28;;;18.60;99.90;;;;;;5062074;28;20016;-85
2022/10/26 13:23:43;;;;;;;9.40;3.20;;;18.60;99.90;;;;;;5080613;28;20071;-87